Time,TemperatureF,DewpointF,PressureIn,WindDirection,WindDirectionDegrees,WindSpeedMPH,WindSpeedGustMPH,Humidity,HourlyPrecipIn,Conditions,Clouds,dailyrainin,SoftwareType,DateUTC
2013-03-09 00:12:00,30.6,25.0,30.38,ENE,59,2.0,4.0,81,0.00,,,0.00,weatherlink.com 1.10,2013-03-09 05:12:00,
2013-03-09 00:27:00,30.9,25.0,30.37,NE,48,2.0,4.0,80,0.00,,,0.00,weatherlink.com 1.10,2013-03-09 05:27:00,
2013-03-09 00:42:00,30.8,26.0,30.36,NE,38,1.0,3.0,81,0.00,,,0.00,weatherlink.com 1.10,2013-03-09 05:42:00,
2013-03-09 00:57:00,30.7,26.0,30.36,ENE,63,1.0,3.0,81,0.00,,,0.00,weatherlink.com 1.10,2013-03-09 05:57:00,
2013-03-09 01:13:00,30.9,26.0,30.35,NE,40,2.0,5.0,82,0.00,,,0.00,weatherlink.com 1.10,2013-03-09 06:13:00,
2013-03-09 01:28:00,31.3,26.0,30.35,NE,55,1.0,3.0,81,0.00,,,0.00,weatherlink.com 1.10,2013-03-09 06:28:00,
2013-03-09 01:43:00,31.4,26.0,30.35,NE,53,1.0,4.0,81,0.00,,,0.00,weatherlink.com 1.10,2013-03-09 06:43:00,
2013-03-09 01:58:00,31.4,26.0,30.35,ENE,57,2.0,3.0,81,0.00,,,0.00,weatherlink.com 1.10,2013-03-09 06:58:00,
2013-03-09 02:13:00,31.4,27.0,30.34,ENE,68,1.0,4.0,82,0.00,,,0.00,weatherlink.com 1.10,2013-03-09 07:13:00,
2013-03-09 02:28:00,31.2,27.0,30.34,ENE,61,3.0,4.0,83,0.00,,,0.00,weatherlink.com 1.10,2013-03-09 07:28:00,
2013-03-09 02:43:00,31.1,27.0,30.34,ENE,67,0.0,4.0,83,0.00,,,0.00,weatherlink.com 1.10,2013-03-09 07:43:00,
2013-03-09 02:58:00,30.8,26.0,30.33,NE,51,0.0,3.0,83,0.00,,,0.00,weatherlink.com 1.10,2013-03-09 07:58:00,
2013-03-09 03:13:00,30.3,26.0,30.32,NE,41,0.0,2.0,84,0.00,,,0.00,weatherlink.com 1.10,2013-03-09 08:13:00,
2013-03-09 03:28:00,30.3,26.0,30.31,NE,42,0.0,2.0,84,0.00,,,0.00,weatherlink.com 1.10,2013-03-09 08:28:00,
2013-03-09 03:43:00,30.6,27.0,30.30,NE,36,1.0,3.0,85,0.00,,,0.00,weatherlink.com 1.10,2013-03-09 08:43:00,
2013-03-09 03:58:00,31.1,27.0,30.30,ENE,67,0.0,6.0,85,0.00,,,0.00,weatherlink.com 1.10,2013-03-09 08:58:00,
2013-03-09 04:13:00,31.7,27.0,30.29,NE,46,2.0,5.0,84,0.00,,,0.00,weatherlink.com 1.10,2013-03-09 09:13:00,
2013-03-09 04:28:00,31.9,27.0,30.30,ENE,65,1.0,4.0,83,0.00,,,0.00,weatherlink.com 1.10,2013-03-09 09:28:00,
2013-03-09 04:43:00,31.9,27.0,30.29,NE,34,0.0,2.0,83,0.00,,,0.00,weatherlink.com 1.10,2013-03-09 09:43:00,
2013-03-09 04:58:00,31.8,28.0,30.29,NE,34,0.0,3.0,84,0.00,,,0.00,weatherlink.com 1.10,2013-03-09 09:58:00,
2013-03-09 05:13:00,31.7,28.0,30.29,ENE,66,2.0,3.0,85,0.00,,,0.00,weatherlink.com 1.10,2013-03-09 10:13:00,
2013-03-09 05:28:00,31.7,28.0,30.28,NNE,33,1.0,3.0,85,0.00,,,0.00,weatherlink.com 1.10,2013-03-09 10:28:00,
2013-03-09 05:43:00,31.5,28.0,30.27,North,11,2.0,3.0,86,0.00,,,0.00,weatherlink.com 1.10,2013-03-09 10:43:00,
2013-03-09 05:58:00,31.6,28.0,30.27,NNE,30,0.0,7.0,86,0.00,,,0.00,weatherlink.com 1.10,2013-03-09 10:58:00,
2013-03-09 06:13:00,31.7,28.0,30.27,ENE,74,0.0,4.0,85,0.00,,,0.00,weatherlink.com 1.10,2013-03-09 11:13:00,
2013-03-09 06:28:00,31.6,28.0,30.27,ENE,63,3.0,6.0,86,0.00,,,0.00,weatherlink.com 1.10,2013-03-09 11:28:00,
2013-03-09 06:43:00,31.7,28.0,30.27,ENE,73,1.0,4.0,86,0.00,,,0.00,weatherlink.com 1.10,2013-03-09 11:43:00,
2013-03-09 06:58:00,31.7,28.0,30.27,NE,50,0.0,3.0,86,0.00,,,0.00,weatherlink.com 1.10,2013-03-09 11:58:00,
2013-03-09 07:13:00,31.9,29.0,30.27,NE,55,1.0,5.0,87,0.00,,,0.00,weatherlink.com 1.10,2013-03-09 12:13:00,
2013-03-09 07:28:00,33.1,29.0,30.26,East,82,7.0,12.0,85,0.00,,,0.00,weatherlink.com 1.10,2013-03-09 12:28:00,
2013-03-09 07:43:00,33.8,29.0,30.27,ENE,76,3.0,13.0,83,0.00,,,0.00,weatherlink.com 1.10,2013-03-09 12:43:00,
2013-03-09 07:58:00,33.8,29.0,30.28,East,81,9.0,14.0,83,0.00,,,0.00,weatherlink.com 1.10,2013-03-09 12:58:00,
2013-03-09 08:13:00,33.8,30.0,30.28,ENE,77,7.0,10.0,84,0.00,,,0.00,weatherlink.com 1.10,2013-03-09 13:13:00,
2013-03-09 08:28:00,34.0,30.0,30.28,East,89,10.0,13.0,84,0.00,,,0.00,weatherlink.com 1.10,2013-03-09 13:28:00,
2013-03-09 08:43:00,34.3,30.0,30.28,ENE,60,4.0,13.0,84,0.00,,,0.00,weatherlink.com 1.10,2013-03-09 13:43:00,
2013-03-09 08:58:00,34.8,30.0,30.27,ENE,57,8.0,10.0,83,0.00,,,0.00,weatherlink.com 1.10,2013-03-09 13:58:00,
2013-03-09 09:13:00,35.1,30.0,30.27,ENE,73,4.0,9.0,83,0.00,,,0.00,weatherlink.com 1.10,2013-03-09 14:13:00,
2013-03-09 09:28:00,35.4,30.0,30.27,NNE,26,4.0,15.0,82,0.00,,,0.00,weatherlink.com 1.10,2013-03-09 14:28:00,
2013-03-09 09:43:00,35.9,31.0,30.27,NE,51,6.0,11.0,81,0.00,,,0.00,weatherlink.com 1.10,2013-03-09 14:43:00,
2013-03-09 09:58:00,36.3,31.0,30.26,ENE,63,5.0,8.0,80,0.00,,,0.00,weatherlink.com 1.10,2013-03-09 14:58:00,
2013-03-09 10:14:00,37.8,32.0,30.26,ENE,71,5.0,9.0,78,0.00,,,0.00,weatherlink.com 1.10,2013-03-09 15:14:00,
2013-03-09 10:29:00,38.6,32.0,30.26,ENE,59,10.0,12.0,76,0.00,,,0.00,weatherlink.com 1.10,2013-03-09 15:29:00,
2013-03-09 10:44:00,39.0,32.0,30.26,East,85,5.0,10.0,76,0.00,,,0.00,weatherlink.com 1.10,2013-03-09 15:44:00,
2013-03-09 10:59:00,39.5,32.0,30.25,ENE,67,8.0,10.0,75,0.00,,,0.00,weatherlink.com 1.10,2013-03-09 15:59:00,
2013-03-09 11:14:00,39.8,32.0,30.25,East,82,7.0,12.0,75,0.00,,,0.00,weatherlink.com 1.10,2013-03-09 16:14:00,
2013-03-09 11:29:00,40.3,32.0,30.24,East,88,14.0,14.0,73,0.00,,,0.00,weatherlink.com 1.10,2013-03-09 16:29:00,
2013-03-09 11:44:00,40.7,33.0,30.23,NE,55,5.0,11.0,73,0.00,,,0.00,weatherlink.com 1.10,2013-03-09 16:44:00,
2013-03-09 11:59:00,40.7,33.0,30.22,East,88,18.0,18.0,73,0.00,,,0.00,weatherlink.com 1.10,2013-03-09 16:59:00,
2013-03-09 12:14:00,41.2,34.0,30.21,NE,44,6.0,17.0,74,0.00,,,0.00,weatherlink.com 1.10,2013-03-09 17:14:00,
2013-03-09 12:29:00,42.0,34.0,30.20,NE,47,5.0,12.0,73,0.00,,,0.00,weatherlink.com 1.10,2013-03-09 17:29:00,
2013-03-09 12:44:00,42.5,34.0,30.19,ENE,60,4.0,11.0,73,0.00,,,0.00,weatherlink.com 1.10,2013-03-09 17:44:00,
2013-03-09 12:59:00,43.1,35.0,30.18,ENE,68,11.0,13.0,72,0.00,,,0.00,weatherlink.com 1.10,2013-03-09 17:59:00,
2013-03-09 13:14:00,43.1,35.0,30.17,ENE,63,5.0,13.0,72,0.00,,,0.00,weatherlink.com 1.10,2013-03-09 18:14:00,
2013-03-09 13:29:00,43.7,35.0,30.16,ENE,69,8.0,16.0,72,0.00,,,0.00,weatherlink.com 1.10,2013-03-09 18:29:00,
2013-03-09 13:44:00,43.8,35.0,30.16,NE,47,9.0,17.0,71,0.01,,,0.01,weatherlink.com 1.10,2013-03-09 18:44:00,
2013-03-09 13:59:00,44.5,36.0,30.15,NE,51,8.0,18.0,71,0.01,,,0.01,weatherlink.com 1.10,2013-03-09 18:59:00,
2013-03-09 14:14:00,44.5,36.0,30.14,ENE,74,5.0,13.0,73,0.01,,,0.01,weatherlink.com 1.10,2013-03-09 19:14:00,
2013-03-09 14:29:00,44.6,36.0,30.13,ENE,60,11.0,13.0,73,0.01,,,0.01,weatherlink.com 1.10,2013-03-09 19:29:00,
2013-03-09 14:44:00,44.8,37.0,30.12,ENE,69,4.0,12.0,73,0.00,,,0.01,weatherlink.com 1.10,2013-03-09 19:44:00,
2013-03-09 14:59:00,44.8,37.0,30.11,ENE,65,7.0,12.0,75,0.00,,,0.01,weatherlink.com 1.10,2013-03-09 19:59:00,
2013-03-09 15:14:00,45.2,37.0,30.10,NE,53,6.0,12.0,74,0.00,,,0.01,weatherlink.com 1.10,2013-03-09 20:14:00,
2013-03-09 15:29:00,45.4,37.0,30.09,ENE,64,5.0,17.0,73,0.00,,,0.01,weatherlink.com 1.10,2013-03-09 20:29:00,
2013-03-09 15:44:00,45.9,38.0,30.08,ENE,65,5.0,17.0,73,0.00,,,0.01,weatherlink.com 1.10,2013-03-09 20:44:00,
2013-03-09 16:00:00,46.8,38.0,30.07,East,80,5.0,11.0,72,0.00,,,0.01,weatherlink.com 1.10,2013-03-09 21:00:00,
2013-03-09 16:15:00,46.4,39.0,30.07,ENE,77,5.0,12.0,74,0.00,,,0.01,weatherlink.com 1.10,2013-03-09 21:15:00,
2013-03-09 16:30:00,45.7,39.0,30.06,NE,51,6.0,10.0,77,0.00,,,0.01,weatherlink.com 1.10,2013-03-09 21:30:00,
2013-03-09 16:45:00,45.1,39.0,30.07,ENE,69,5.0,8.0,78,0.00,,,0.01,weatherlink.com 1.10,2013-03-09 21:45:00,
2013-03-09 17:00:00,44.9,39.0,30.06,ENE,61,4.0,8.0,79,0.00,,,0.01,weatherlink.com 1.10,2013-03-09 22:00:00,
2013-03-09 17:15:00,44.2,39.0,30.05,ENE,62,3.0,8.0,82,0.01,,,0.02,weatherlink.com 1.10,2013-03-09 22:15:00,
2013-03-09 17:30:00,43.9,39.0,30.05,ENE,60,2.0,8.0,83,0.01,,,0.02,weatherlink.com 1.10,2013-03-09 22:30:00,
2013-03-09 17:45:00,43.8,39.0,30.05,ENE,59,2.0,6.0,83,0.01,,,0.02,weatherlink.com 1.10,2013-03-09 22:45:00,
2013-03-09 18:00:00,44.0,39.0,30.05,ENE,71,1.0,8.0,82,0.01,,,0.02,weatherlink.com 1.10,2013-03-09 23:00:00,
2013-03-09 18:15:00,44.2,39.0,30.04,ENE,67,1.0,5.0,81,0.00,,,0.02,weatherlink.com 1.10,2013-03-09 23:15:00,
2013-03-09 18:30:00,44.3,39.0,30.03,ENE,66,3.0,5.0,81,0.00,,,0.02,weatherlink.com 1.10,2013-03-09 23:30:00,
2013-03-09 18:45:00,44.1,38.0,30.03,ENE,58,4.0,9.0,80,0.00,,,0.02,weatherlink.com 1.10,2013-03-09 23:45:00,
2013-03-09 19:00:00,43.7,38.0,30.02,ENE,58,3.0,8.0,81,0.00,,,0.02,weatherlink.com 1.10,2013-03-10 00:00:00,
2013-03-09 19:15:00,43.8,38.0,30.02,ENE,59,8.0,11.0,80,0.00,,,0.02,weatherlink.com 1.10,2013-03-10 00:15:00,
2013-03-09 19:30:00,43.9,38.0,30.02,ENE,71,4.0,11.0,80,0.00,,,0.02,weatherlink.com 1.10,2013-03-10 00:30:00,
2013-03-09 19:45:00,43.5,38.0,30.01,East,80,7.0,10.0,80,0.00,,,0.02,weatherlink.com 1.10,2013-03-10 00:45:00,
2013-03-09 20:00:00,43.7,38.0,30.01,ENE,78,8.0,9.0,80,0.00,,,0.02,weatherlink.com 1.10,2013-03-10 01:00:00,
2013-03-09 20:15:00,44.0,38.0,30.00,ENE,71,5.0,11.0,79,0.00,,,0.02,weatherlink.com 1.10,2013-03-10 01:15:00,
2013-03-09 20:30:00,44.1,38.0,30.00,ENE,65,4.0,10.0,79,0.00,,,0.02,weatherlink.com 1.10,2013-03-10 01:30:00,
2013-03-09 20:45:00,44.2,38.0,29.98,ENE,65,4.0,11.0,79,0.00,,,0.02,weatherlink.com 1.10,2013-03-10 01:45:00,
2013-03-09 21:00:00,44.2,38.0,29.98,ENE,72,8.0,13.0,79,0.00,,,0.02,weatherlink.com 1.10,2013-03-10 02:00:00,
2013-03-09 21:15:00,44.4,38.0,29.98,ENE,59,7.0,10.0,79,0.00,,,0.02,weatherlink.com 1.10,2013-03-10 02:15:00,
2013-03-09 21:30:00,44.8,38.0,29.97,ENE,72,7.0,16.0,78,0.00,,,0.02,weatherlink.com 1.10,2013-03-10 02:30:00,
2013-03-09 21:45:00,44.8,38.0,29.97,East,82,8.0,12.0,77,0.00,,,0.02,weatherlink.com 1.10,2013-03-10 02:45:00,
2013-03-09 22:00:00,45.2,38.0,29.96,East,87,8.0,14.0,76,0.00,,,0.02,weatherlink.com 1.10,2013-03-10 03:00:00,
2013-03-09 22:15:00,46.0,38.0,29.96,East,82,11.0,14.0,74,0.00,,,0.02,weatherlink.com 1.10,2013-03-10 03:15:00,
2013-03-09 22:30:00,46.6,38.0,29.96,ENE,78,8.0,16.0,73,0.00,,,0.02,weatherlink.com 1.10,2013-03-10 03:30:00,
2013-03-09 22:45:00,47.1,38.0,29.95,East,92,13.0,15.0,71,0.00,,,0.02,weatherlink.com 1.10,2013-03-10 03:45:00,
2013-03-09 23:00:00,47.4,38.0,29.94,East,83,9.0,17.0,70,0.00,,,0.02,weatherlink.com 1.10,2013-03-10 04:00:00,
2013-03-09 23:15:00,47.3,38.0,29.95,East,92,7.0,14.0,69,0.00,,,0.02,weatherlink.com 1.10,2013-03-10 04:15:00,
2013-03-09 23:30:00,47.2,37.0,29.95,East,88,9.0,13.0,69,0.00,,,0.02,weatherlink.com 1.10,2013-03-10 04:30:00,
2013-03-09 23:45:00,46.9,37.0,29.94,East,84,9.0,12.0,69,0.00,,,0.02,weatherlink.com 1.10,2013-03-10 04:45:00,